createdAt,value
2022-12-25T00:01:32.522Z,10.82
2022-12-25T00:05:40.288Z,10.83
2022-12-25T00:09:43.791Z,10.82
2022-12-25T00:13:47.404Z,10.82
2022-12-25T00:17:51.043Z,10.81
2022-12-25T00:21:55.909Z,10.81
2022-12-25T00:25:59.783Z,10.77
2022-12-25T00:30:03.414Z,10.74
2022-12-25T00:34:06.894Z,10.70
2022-12-25T00:38:12.019Z,10.67
2022-12-25T00:42:30.584Z,10.64
2022-12-25T00:46:34.280Z,10.60
2022-12-25T00:50:40.010Z,10.51
2022-12-25T00:54:45.078Z,10.43
2022-12-25T00:58:48.599Z,10.35
2022-12-25T01:02:52.177Z,10.30
2022-12-25T01:06:56.080Z,10.30
2022-12-25T01:11:04.015Z,10.37
2022-12-25T01:15:09.819Z,10.45
2022-12-25T01:19:13.392Z,10.51
2022-12-25T01:23:17.367Z,10.55
2022-12-25T01:27:22.321Z,10.58
2022-12-25T01:31:26.627Z,10.59
2022-12-25T01:35:30.466Z,10.60
2022-12-25T01:39:34.059Z,10.55
2022-12-25T01:44:00.286Z,10.59
2022-12-25T01:48:07.668Z,10.61
2022-12-25T01:52:17.532Z,10.60
2022-12-25T01:56:26.780Z,10.60
2022-12-25T02:00:31.941Z,10.59
2022-12-25T02:04:43.961Z,10.55
2022-12-25T02:08:50.347Z,10.46
2022-12-25T02:12:54.660Z,10.48
2022-12-25T02:17:07.715Z,10.47
2022-12-25T02:21:28.129Z,10.45
2022-12-25T02:25:44.907Z,10.45
2022-12-25T02:30:01.560Z,10.42
2022-12-25T02:34:13.025Z,10.38
2022-12-25T02:38:21.841Z,10.34
2022-12-25T02:43:00.177Z,10.28
2022-12-25T02:47:25.087Z,10.23
2022-12-25T02:51:49.071Z,10.15
2022-12-25T02:56:11.586Z,10.06
2022-12-25T03:00:39.118Z,9.99
2022-12-25T03:05:03.244Z,9.89
2022-12-25T03:09:27.320Z,9.83
2022-12-25T03:13:34.719Z,9.79
2022-12-25T03:17:37.155Z,9.75
2022-12-25T03:21:59.647Z,9.74
2022-12-25T03:26:21.598Z,9.72
2022-12-25T03:30:46.523Z,9.75
2022-12-25T03:35:17.331Z,9.77
2022-12-25T03:39:47.679Z,9.82
2022-12-25T03:44:12.696Z,9.87
2022-12-25T03:48:44.249Z,9.88
2022-12-25T03:53:06.959Z,9.87
2022-12-25T03:57:29.961Z,9.84
2022-12-25T04:01:50.550Z,9.86
2022-12-25T04:06:11.261Z,9.81
2022-12-25T04:10:31.808Z,9.73
2022-12-25T04:14:54.133Z,9.66
2022-12-25T04:19:14.991Z,9.59
2022-12-25T04:23:35.606Z,9.53
2022-12-25T04:27:56.281Z,9.47
2022-12-25T04:32:18.011Z,9.42
2022-12-25T04:36:21.427Z,9.32
2022-12-25T04:40:24.824Z,9.27
2022-12-25T04:44:28.225Z,9.19
2022-12-25T04:48:35.060Z,9.11
2022-12-25T04:52:38.798Z,9.00
2022-12-25T04:56:45.766Z,8.88
2022-12-25T05:00:50.585Z,8.76
2022-12-25T05:04:54.981Z,8.63
2022-12-25T05:08:58.238Z,8.47
2022-12-25T05:13:01.454Z,8.34
2022-12-25T05:17:04.704Z,8.22
2022-12-25T05:21:09.273Z,8.13
2022-12-25T05:25:12.586Z,8.03
2022-12-25T05:29:15.946Z,7.96
2022-12-25T05:33:19.136Z,7.87
2022-12-25T05:37:23.615Z,7.82
2022-12-25T05:41:33.822Z,7.78
2022-12-25T05:45:37.830Z,7.75
2022-12-25T05:49:40.953Z,7.73
2022-12-25T05:53:45.412Z,7.75
2022-12-25T05:57:48.979Z,7.77
2022-12-25T06:01:52.353Z,7.73
2022-12-25T06:05:56.116Z,7.82
2022-12-25T06:10:00.525Z,7.87
2022-12-25T06:14:03.847Z,7.88
2022-12-25T06:18:07.141Z,7.93
2022-12-25T06:22:10.326Z,7.97
2022-12-25T06:26:18.480Z,8.01
2022-12-25T06:30:21.683Z,8.05
2022-12-25T06:34:25.413Z,8.09
2022-12-25T06:38:29.766Z,8.20
2022-12-25T06:42:34.522Z,8.29
2022-12-25T06:46:37.703Z,8.37
2022-12-25T06:50:44.322Z,8.46
2022-12-25T06:54:48.764Z,8.48
2022-12-25T06:58:55.569Z,8.52
2022-12-25T07:02:58.929Z,8.58
2022-12-25T07:07:08.440Z,8.63
2022-12-25T07:11:12.390Z,8.66
2022-12-25T07:15:17.319Z,8.69
2022-12-25T07:19:20.611Z,8.67
2022-12-25T07:23:23.771Z,8.66
2022-12-25T07:27:27.215Z,8.64
2022-12-25T07:31:31.908Z,8.64
2022-12-25T07:35:35.161Z,8.66
2022-12-25T07:39:39.210Z,8.71
2022-12-25T07:43:43.003Z,8.79
2022-12-25T07:47:47.933Z,8.87
2022-12-25T07:51:50.915Z,8.94
2022-12-25T07:56:01.162Z,9.01
2022-12-25T08:00:07.750Z,9.08
2022-12-25T08:04:13.026Z,9.16
2022-12-25T08:08:16.096Z,9.20
2022-12-25T08:12:19.490Z,9.25
2022-12-25T08:16:23.091Z,9.28
2022-12-25T08:20:27.809Z,9.35
2022-12-25T08:24:31.213Z,9.42
2022-12-25T08:28:35.906Z,9.53
2022-12-25T08:32:39.215Z,9.62
2022-12-25T08:36:43.691Z,9.76
2022-12-25T08:40:47.028Z,9.87
2022-12-25T08:44:50.329Z,10.02
2022-12-25T08:48:53.716Z,10.14
2022-12-25T08:52:58.410Z,10.27
2022-12-25T08:57:03.057Z,10.39
2022-12-25T09:01:08.213Z,10.53
2022-12-25T09:05:12.011Z,10.65
2022-12-25T09:09:16.540Z,10.75
2022-12-25T09:13:19.528Z,10.83
2022-12-25T09:17:22.743Z,10.92
2022-12-25T09:21:25.963Z,11.03
2022-12-25T09:25:30.568Z,11.18
2022-12-25T09:29:33.692Z,11.32
2022-12-25T09:33:36.796Z,11.48
2022-12-25T09:37:40.661Z,11.64
2022-12-25T09:41:55.097Z,11.76
2022-12-25T09:46:00.179Z,11.83
2022-12-25T09:50:09.179Z,11.91
2022-12-25T09:54:18.040Z,12.00
2022-12-25T09:58:22.755Z,12.16
2022-12-25T10:02:56.701Z,12.37
2022-12-25T10:07:11.894Z,12.57
2022-12-25T10:11:25.174Z,12.75
2022-12-25T10:15:39.234Z,12.86
2022-12-25T10:19:54.693Z,12.95
2022-12-25T10:24:08.487Z,13.05
2022-12-25T10:33:36.137Z,13.40
2022-12-25T10:37:39.907Z,13.57
2022-12-25T10:41:58.237Z,13.84
2022-12-25T10:46:01.530Z,14.08
2022-12-25T10:50:13.078Z,14.29
2022-12-25T10:54:23.083Z,14.49
2022-12-25T10:58:26.400Z,14.71
2022-12-25T11:02:32.296Z,14.86
2022-12-25T11:06:37.161Z,15.21
2022-12-25T11:10:44.475Z,15.44
2022-12-25T11:14:55.549Z,15.59
2022-12-25T11:18:59.972Z,15.65
2022-12-25T11:23:11.518Z,15.71
2022-12-25T11:27:23.840Z,15.79
2022-12-25T11:31:33.992Z,15.82
2022-12-25T11:35:47.993Z,15.82
2022-12-25T11:39:52.770Z,15.80
2022-12-25T11:43:59.665Z,15.80
2022-12-25T11:48:08.878Z,15.86
2022-12-25T11:52:14.960Z,15.96
2022-12-25T11:56:23.169Z,16.10
2022-12-25T12:00:26.913Z,16.25
2022-12-25T12:04:42.054Z,16.41
2022-12-25T12:08:49.345Z,16.55
2022-12-25T12:13:00.184Z,16.67
2022-12-25T12:17:03.555Z,16.75
2022-12-25T12:21:20.945Z,16.80
2022-12-25T12:25:24.547Z,16.75
2022-12-25T12:29:31.471Z,16.70
2022-12-25T12:33:38.859Z,16.65
2022-12-25T12:37:43.485Z,16.57
2022-12-25T12:41:49.698Z,16.50
2022-12-25T12:45:59.477Z,16.46
2022-12-25T12:50:03.568Z,16.41
2022-12-25T12:54:18.476Z,16.42
2022-12-25T12:58:31.292Z,16.41
2022-12-25T13:03:02.192Z,16.35
2022-12-25T13:07:13.654Z,16.24
2022-12-25T13:11:21.547Z,16.08
2022-12-25T13:15:28.470Z,15.92
2022-12-25T13:19:33.246Z,15.79
2022-12-25T13:23:39.438Z,15.64
2022-12-25T13:27:42.493Z,15.47
2022-12-25T13:31:45.766Z,15.31
2022-12-25T13:35:50.509Z,15.13
2022-12-25T13:39:56.940Z,14.94
2022-12-25T13:44:00.641Z,14.75
2022-12-25T13:48:15.962Z,14.55
2022-12-25T13:52:23.979Z,14.37
2022-12-25T13:56:27.381Z,14.20
2022-12-25T14:00:34.883Z,14.06
2022-12-25T14:04:45.541Z,13.93
2022-12-25T14:08:51.321Z,13.81
2022-12-25T14:12:57.555Z,13.69
2022-12-25T14:17:01.362Z,13.56
2022-12-25T14:21:07.520Z,13.45
2022-12-25T14:25:17.708Z,13.36
2022-12-25T14:29:26.583Z,13.32
2022-12-25T14:33:40.109Z,13.27
2022-12-25T14:37:43.972Z,13.25
2022-12-25T14:41:54.714Z,13.20
2022-12-25T14:46:00.272Z,13.13
2022-12-25T14:50:14.079Z,13.07
2022-12-25T14:54:20.880Z,13.00
2022-12-25T14:58:28.634Z,12.92
2022-12-25T15:02:44.799Z,12.81
2022-12-25T15:06:55.414Z,12.64
2022-12-25T15:11:01.799Z,12.49
2022-12-25T15:15:08.318Z,12.29
2022-12-25T15:19:14.584Z,12.08
2022-12-25T15:23:20.043Z,11.89
2022-12-25T15:27:24.248Z,11.70
2022-12-25T15:31:31.432Z,11.50
2022-12-25T15:35:34.910Z,11.35
2022-12-25T15:39:38.497Z,11.24
2022-12-25T15:43:41.831Z,11.18
2022-12-25T15:47:46.425Z,11.16
2022-12-25T15:51:49.665Z,11.13
2022-12-25T15:55:52.937Z,11.08
2022-12-25T15:59:56.230Z,11.01
2022-12-25T16:04:00.963Z,10.91
2022-12-25T16:08:03.898Z,10.80
2022-12-25T16:12:07.520Z,10.68
2022-12-25T16:16:10.832Z,10.58
2022-12-25T16:20:15.889Z,10.46
2022-12-25T16:24:18.971Z,10.34
2022-12-25T16:28:22.532Z,10.21
2022-12-25T16:32:25.799Z,10.10
2022-12-25T16:36:30.499Z,10.01
2022-12-25T16:40:33.514Z,9.92
2022-12-25T16:44:38.637Z,9.84
2022-12-25T16:48:41.948Z,9.77
2022-12-25T16:52:46.464Z,9.68
2022-12-25T16:56:49.490Z,9.59
2022-12-25T17:00:52.630Z,9.51
2022-12-25T17:04:56.045Z,9.45
2022-12-25T17:09:02.853Z,9.45
2022-12-25T17:13:05.977Z,9.46
2022-12-25T17:17:09.203Z,9.45
2022-12-25T17:21:14.854Z,9.44
2022-12-25T17:25:19.725Z,9.41
2022-12-25T17:29:23.215Z,9.35
2022-12-25T17:33:26.310Z,9.29
2022-12-25T17:37:29.640Z,9.21
2022-12-25T17:41:35.091Z,9.15
2022-12-25T17:45:38.634Z,9.06
2022-12-25T17:49:42.878Z,8.99
2022-12-25T17:53:48.731Z,8.91
2022-12-25T17:57:53.316Z,8.90
2022-12-25T18:01:57.041Z,8.86
2022-12-25T18:06:01.686Z,8.80
2022-12-25T18:10:05.275Z,8.78
2022-12-25T18:14:12.722Z,8.76
2022-12-25T18:18:16.035Z,8.81
2022-12-25T18:22:19.363Z,8.86
2022-12-25T18:26:22.858Z,8.92
2022-12-25T18:30:27.545Z,8.96
2022-12-25T18:34:31.807Z,8.97
2022-12-25T18:38:35.715Z,8.97
2022-12-25T18:42:42.495Z,8.92
2022-12-25T18:46:47.123Z,8.83
2022-12-25T18:50:56.496Z,8.76
2022-12-25T18:54:59.610Z,8.70
2022-12-25T18:59:03.313Z,8.60
2022-12-25T19:03:08.250Z,8.49
2022-12-25T19:07:12.466Z,8.32
2022-12-25T19:11:16.076Z,8.25
2022-12-25T19:15:20.693Z,8.15
2022-12-25T19:19:26.269Z,8.06
2022-12-25T19:23:29.880Z,7.97
2022-12-25T19:27:33.203Z,7.90
2022-12-25T19:31:39.086Z,7.86
2022-12-25T19:35:43.957Z,7.77
2022-12-25T19:39:47.991Z,7.77
2022-12-25T19:43:52.551Z,7.64
2022-12-25T19:47:56.243Z,7.61
2022-12-25T19:52:01.403Z,7.51
2022-12-25T19:56:05.474Z,7.41
2022-12-25T20:00:10.956Z,7.36
2022-12-25T20:04:14.874Z,7.31
2022-12-25T20:08:19.806Z,7.27
2022-12-25T20:12:23.570Z,7.25
2022-12-25T20:16:27.435Z,7.23
2022-12-25T20:20:31.364Z,7.16
2022-12-25T20:24:36.424Z,7.14
2022-12-25T20:28:41.924Z,7.14
2022-12-25T20:32:50.326Z,7.16
2022-12-25T20:36:56.673Z,7.16
2022-12-25T20:45:27.789Z,7.16
2022-12-25T20:49:32.947Z,7.14
2022-12-25T20:53:37.834Z,7.09
2022-12-25T20:57:42.676Z,7.04
2022-12-25T21:01:46.359Z,6.95
2022-12-25T21:05:52.864Z,6.91
2022-12-25T21:09:56.029Z,6.85
2022-12-25T21:14:00.661Z,6.83
2022-12-25T21:18:04.266Z,6.80
2022-12-25T21:22:07.677Z,6.81
2022-12-25T21:26:17.172Z,6.81
2022-12-25T21:30:21.614Z,6.83
2022-12-25T21:34:24.910Z,6.80
2022-12-25T21:38:28.030Z,6.78
2022-12-25T21:42:31.611Z,6.72
2022-12-25T21:46:36.603Z,6.66
2022-12-25T21:50:57.136Z,6.59
2022-12-25T21:55:00.493Z,6.58
2022-12-25T21:59:05.921Z,6.59
2022-12-25T22:03:10.322Z,6.64
2022-12-25T22:07:20.375Z,6.70
2022-12-25T22:11:41.112Z,6.74
2022-12-25T22:16:01.589Z,6.75
2022-12-25T22:20:08.706Z,6.72
2022-12-25T22:24:13.733Z,6.65
2022-12-25T22:28:16.753Z,6.57
2022-12-25T22:32:31.111Z,6.45
2022-12-25T22:36:36.137Z,6.34
2022-12-25T22:40:39.238Z,6.29
2022-12-25T22:44:42.691Z,6.27
2022-12-25T22:48:45.751Z,6.27
2022-12-25T22:52:50.539Z,6.29
2022-12-25T22:56:54.385Z,6.30
2022-12-25T23:00:57.954Z,6.33
2022-12-25T23:05:01.369Z,6.36
2022-12-25T23:09:07.533Z,6.42
2022-12-25T23:13:28.277Z,6.49
2022-12-25T23:17:49.015Z,6.58
2022-12-25T23:22:24.203Z,6.59
2022-12-25T23:26:28.690Z,6.63
2022-12-25T23:30:31.907Z,6.67
2022-12-25T23:34:35.630Z,6.68
2022-12-25T23:38:38.984Z,6.70
2022-12-25T23:42:43.633Z,6.48
2022-12-25T23:46:52.728Z,6.73
2022-12-25T23:50:56.930Z,6.74
2022-12-25T23:55:00.018Z,6.72
2022-12-25T23:59:05.042Z,6.71
